sensor_id;sensor_type;location;lat;lon;timestamp;pressure;altitude;pressure_sealevel;temperature;humidity
55066;BME280;40964;42.114;24.220;2023-02-28T00:00:31;98308.38;;;8.40;93.38
55066;BME280;40964;42.114;24.220;2023-02-28T00:02:57;98311.88;;;8.47;92.90
55066;BME280;40964;42.114;24.220;2023-02-28T00:05:25;98326.16;;;8.45;93.17
55066;BME280;40964;42.114;24.220;2023-02-28T00:07:51;98325.59;;;8.49;92.83
55066;BME280;40964;42.114;24.220;2023-02-28T00:10:29;98328.47;;;8.55;93.16
55066;BME280;40964;42.114;24.220;2023-02-28T00:12:56;98310.25;;;8.46;92.50
55066;BME280;40964;42.114;24.220;2023-02-28T00:15:24;98321.56;;;8.53;92.04
55066;BME280;40964;42.114;24.220;2023-02-28T00:17:50;98329.81;;;8.50;92.13
55066;BME280;40964;42.114;24.220;2023-02-28T00:20:16;98320.34;;;8.49;92.54
55066;BME280;40964;42.114;24.220;2023-02-28T00:22:45;98322.28;;;8.41;91.78
55066;BME280;40964;42.114;24.220;2023-02-28T00:25:12;98337.00;;;8.42;92.10
55066;BME280;40964;42.114;24.220;2023-02-28T00:27:39;98334.59;;;8.40;92.70
55066;BME280;40964;42.114;24.220;2023-02-28T00:30:07;98327.31;;;8.36;92.55
55066;BME280;40964;42.114;24.220;2023-02-28T00:32:34;98332.53;;;8.36;92.14
55066;BME280;40964;42.114;24.220;2023-02-28T00:35:00;98338.81;;;8.20;93.44
55066;BME280;40964;42.114;24.220;2023-02-28T00:37:26;98330.06;;;8.13;93.46
55066;BME280;40964;42.114;24.220;2023-02-28T00:39:51;98318.72;;;8.06;93.80
55066;BME280;40964;42.114;24.220;2023-02-28T00:42:17;98330.00;;;8.06;93.75
55066;BME280;40964;42.114;24.220;2023-02-28T00:44:42;98321.53;;;8.04;93.71
55066;BME280;40964;42.114;24.220;2023-02-28T00:47:08;98320.00;;;8.10;94.89
55066;BME280;40964;42.114;24.220;2023-02-28T00:49:34;98323.16;;;8.05;95.56
55066;BME280;40964;42.114;24.220;2023-02-28T00:51:59;98310.88;;;8.06;95.45
55066;BME280;40964;42.114;24.220;2023-02-28T00:54:25;98315.75;;;8.09;95.19
55066;BME280;40964;42.114;24.220;2023-02-28T00:56:50;98310.00;;;8.20;94.28
55066;BME280;40964;42.114;24.220;2023-02-28T00:59:17;98315.28;;;8.26;93.52
55066;BME280;40964;42.114;24.220;2023-02-28T01:01:44;98323.97;;;8.27;93.11
55066;BME280;40964;42.114;24.220;2023-02-28T01:04:10;98321.78;;;8.31;93.07
55066;BME280;40964;42.114;24.220;2023-02-28T01:06:35;98320.06;;;8.38;92.62
55066;BME280;40964;42.114;24.220;2023-02-28T01:09:03;98316.97;;;8.34;91.95
55066;BME280;40964;42.114;24.220;2023-02-28T01:11:28;98280.16;;;8.00;92.25
55066;BME280;40964;42.114;24.220;2023-02-28T01:13:54;98307.13;;;8.15;92.12
55066;BME280;40964;42.114;24.220;2023-02-28T01:16:19;98300.38;;;8.06;92.60
55066;BME280;40964;42.114;24.220;2023-02-28T01:18:45;98303.94;;;7.98;93.25
55066;BME280;40964;42.114;24.220;2023-02-28T01:21:14;98298.88;;;7.96;93.62
55066;BME280;40964;42.114;24.220;2023-02-28T01:23:40;98304.38;;;8.02;93.95
55066;BME280;40964;42.114;24.220;2023-02-28T01:26:12;98299.56;;;8.05;93.35
55066;BME280;40964;42.114;24.220;2023-02-28T01:28:38;98305.88;;;8.11;93.39
55066;BME280;40964;42.114;24.220;2023-02-28T01:31:04;98299.19;;;8.08;92.87
55066;BME280;40964;42.114;24.220;2023-02-28T01:33:31;98308.84;;;8.08;93.63
55066;BME280;40964;42.114;24.220;2023-02-28T01:36:04;98306.25;;;8.08;92.87
55066;BME280;40964;42.114;24.220;2023-02-28T01:38:30;98312.94;;;8.10;92.57
55066;BME280;40964;42.114;24.220;2023-02-28T01:40:56;98314.56;;;8.11;92.84
55066;BME280;40964;42.114;24.220;2023-02-28T01:45:51;98316.78;;;8.14;93.16
55066;BME280;40964;42.114;24.220;2023-02-28T01:48:19;98315.97;;;8.14;93.16
55066;BME280;40964;42.114;24.220;2023-02-28T01:50:46;98320.16;;;8.08;92.83
55066;BME280;40964;42.114;24.220;2023-02-28T01:53:23;98313.28;;;8.07;92.83
55066;BME280;40964;42.114;24.220;2023-02-28T01:55:52;98315.91;;;8.07;92.44
55066;BME280;40964;42.114;24.220;2023-02-28T01:58:19;98320.00;;;8.10;92.53
55066;BME280;40964;42.114;24.220;2023-02-28T02:00:44;98320.34;;;8.07;93.08
55066;BME280;40964;42.114;24.220;2023-02-28T02:03:12;98324.56;;;8.08;93.29
55066;BME280;40964;42.114;24.220;2023-02-28T02:05:40;98331.63;;;8.07;92.91
55066;BME280;40964;42.114;24.220;2023-02-28T02:08:11;98331.88;;;8.12;92.59
55066;BME280;40964;42.114;24.220;2023-02-28T02:10:43;98331.63;;;8.07;92.17
55066;BME280;40964;42.114;24.220;2023-02-28T02:18:47;98349.63;;;8.10;91.71
55066;BME280;40964;42.114;24.220;2023-02-28T02:27:16;98365.69;;;8.07;92.22
55066;BME280;40964;42.114;24.220;2023-02-28T02:40:57;98339.63;;;7.63;94.01
55066;BME280;40964;42.114;24.220;2023-02-28T02:43:51;98362.06;;;7.72;94.29
55066;BME280;40964;42.114;24.220;2023-02-28T02:46:37;98372.19;;;7.75;94.57
55066;BME280;40964;42.114;24.220;2023-02-28T02:49:08;98364.78;;;7.79;94.37
55066;BME280;40964;42.114;24.220;2023-02-28T02:51:35;98371.44;;;7.81;93.94
55066;BME280;40964;42.114;24.220;2023-02-28T02:54:27;98383.91;;;7.79;93.73
55066;BME280;40964;42.114;24.220;2023-02-28T02:56:56;98380.47;;;7.79;94.32
55066;BME280;40964;42.114;24.220;2023-02-28T02:59:24;98371.19;;;7.76;94.11
55066;BME280;40964;42.114;24.220;2023-02-28T03:01:57;98373.34;;;7.87;94.46
55066;BME280;40964;42.114;24.220;2023-02-28T03:04:25;98383.19;;;7.85;94.30
55066;BME280;40964;42.114;24.220;2023-02-28T03:06:53;98386.34;;;7.81;94.70
55066;BME280;40964;42.114;24.220;2023-02-28T03:09:23;98389.44;;;7.84;94.87
55066;BME280;40964;42.114;24.220;2023-02-28T03:11:52;98367.66;;;7.84;94.78
55066;BME280;40964;42.114;24.220;2023-02-28T03:27:54;98416.97;;;7.80;95.31
55066;BME280;40964;42.114;24.220;2023-02-28T03:33:05;98423.81;;;7.81;95.39
55066;BME280;40964;42.114;24.220;2023-02-28T03:35:39;98421.56;;;7.78;95.74
55066;BME280;40964;42.114;24.220;2023-02-28T03:38:13;98434.56;;;7.86;95.58
55066;BME280;40964;42.114;24.220;2023-02-28T03:40:45;98436.00;;;7.89;95.47
55066;BME280;40964;42.114;24.220;2023-02-28T03:43:16;98439.88;;;7.93;95.01
55066;BME280;40964;42.114;24.220;2023-02-28T03:45:43;98425.31;;;7.90;94.55
55066;BME280;40964;42.114;24.220;2023-02-28T03:48:15;98445.03;;;8.01;94.50
55066;BME280;40964;42.114;24.220;2023-02-28T03:50:45;98456.31;;;8.02;94.10
55066;BME280;40964;42.114;24.220;2023-02-28T03:53:30;98457.47;;;7.99;94.99
55066;BME280;40964;42.114;24.220;2023-02-28T03:56:09;98452.16;;;7.92;95.05
55066;BME280;40964;42.114;24.220;2023-02-28T04:01:37;98466.38;;;7.83;95.54
55066;BME280;40964;42.114;24.220;2023-02-28T04:04:03;98472.22;;;7.71;96.22
55066;BME280;40964;42.114;24.220;2023-02-28T04:06:31;98474.22;;;7.68;95.96
55066;BME280;40964;42.114;24.220;2023-02-28T04:08:57;98477.94;;;7.74;95.36
55066;BME280;40964;42.114;24.220;2023-02-28T04:11:30;98478.63;;;7.68;94.97
55066;BME280;40964;42.114;24.220;2023-02-28T04:13:57;98493.63;;;7.74;95.34
55066;BME280;40964;42.114;24.220;2023-02-28T04:16:23;98493.97;;;7.71;95.41
55066;BME280;40964;42.114;24.220;2023-02-28T04:18:48;98492.53;;;7.68;95.80
55066;BME280;40964;42.114;24.220;2023-02-28T04:21:14;98497.50;;;7.63;97.35
55066;BME280;40964;42.114;24.220;2023-02-28T04:23:39;98498.31;;;7.64;97.18
55066;BME280;40964;42.114;24.220;2023-02-28T04:26:05;98491.47;;;7.48;97.46
55066;BME280;40964;42.114;24.220;2023-02-28T04:28:31;98495.22;;;7.46;98.43
55066;BME280;40964;42.114;24.220;2023-02-28T04:30:59;98496.31;;;7.51;98.07
55066;BME280;40964;42.114;24.220;2023-02-28T04:33:25;98484.16;;;7.58;97.94
55066;BME280;40964;42.114;24.220;2023-02-28T04:36:05;98482.16;;;7.60;97.50
55066;BME280;40964;42.114;24.220;2023-02-28T04:38:36;98490.81;;;7.61;96.93
55066;BME280;40964;42.114;24.220;2023-02-28T04:41:02;98482.16;;;7.60;96.72
55066;BME280;40964;42.114;24.220;2023-02-28T04:43:29;98486.94;;;7.57;96.98
55066;BME280;40964;42.114;24.220;2023-02-28T04:45:56;98492.44;;;7.62;97.07
55066;BME280;40964;42.114;24.220;2023-02-28T04:48:27;98488.56;;;7.58;96.41
55066;BME280;40964;42.114;24.220;2023-02-28T04:50:53;98500.75;;;7.51;97.77
55066;BME280;40964;42.114;24.220;2023-02-28T04:53:18;98500.38;;;7.39;98.26
55066;BME280;40964;42.114;24.220;2023-02-28T04:55:44;98499.63;;;7.30;98.70
55066;BME280;40964;42.114;24.220;2023-02-28T04:58:10;98497.72;;;7.24;99.00
55066;BME280;40964;42.114;24.220;2023-02-28T05:00:36;98505.22;;;7.27;99.49
55066;BME280;40964;42.114;24.220;2023-02-28T05:03:01;98501.44;;;7.30;99.03
55066;BME280;40964;42.114;24.220;2023-02-28T05:05:27;98496.72;;;7.25;98.64
55066;BME280;40964;42.114;24.220;2023-02-28T05:07:52;98509.47;;;7.28;99.29
55066;BME280;40964;42.114;24.220;2023-02-28T05:10:19;98506.13;;;7.34;99.47
55066;BME280;40964;42.114;24.220;2023-02-28T05:12:44;98504.44;;;7.42;100.00
55066;BME280;40964;42.114;24.220;2023-02-28T05:15:13;98513.19;;;7.49;99.76
55066;BME280;40964;42.114;24.220;2023-02-28T05:17:39;98524.28;;;7.51;99.97
55066;BME280;40964;42.114;24.220;2023-02-28T05:20:05;98504.88;;;7.45;99.22
55066;BME280;40964;42.114;24.220;2023-02-28T05:22:31;98527.84;;;7.58;98.68
55066;BME280;40964;42.114;24.220;2023-02-28T05:24:57;98534.25;;;7.70;98.83
55066;BME280;40964;42.114;24.220;2023-02-28T05:27:23;98537.66;;;7.71;98.68
55066;BME280;40964;42.114;24.220;2023-02-28T05:29:48;98529.91;;;7.62;98.72
55066;BME280;40964;42.114;24.220;2023-02-28T05:32:14;98548.94;;;7.71;99.07
55066;BME280;40964;42.114;24.220;2023-02-28T05:34:41;98540.09;;;7.72;99.04
55066;BME280;40964;42.114;24.220;2023-02-28T05:37:11;98540.09;;;7.72;98.59
55066;BME280;40964;42.114;24.220;2023-02-28T05:39:37;98555.72;;;7.80;98.47
55066;BME280;40964;42.114;24.220;2023-02-28T05:42:04;98551.59;;;7.86;98.61
55066;BME280;40964;42.114;24.220;2023-02-28T05:44:29;98559.88;;;7.89;98.48
55066;BME280;40964;42.114;24.220;2023-02-28T05:46:55;98560.44;;;8.00;98.75
55066;BME280;40964;42.114;24.220;2023-02-28T05:49:21;98554.03;;;8.02;98.92
55066;BME280;40964;42.114;24.220;2023-02-28T05:51:46;98569.72;;;8.17;99.22
55066;BME280;40964;42.114;24.220;2023-02-28T05:54:12;98582.22;;;8.30;98.08
55066;BME280;40964;42.114;24.220;2023-02-28T05:56:37;98576.16;;;8.29;99.38
55066;BME280;40964;42.114;24.220;2023-02-28T05:59:05;98575.34;;;8.29;100.00
55066;BME280;40964;42.114;24.220;2023-02-28T06:01:32;98575.88;;;8.24;100.00
55066;BME280;40964;42.114;24.220;2023-02-28T06:03:59;98580.50;;;8.22;100.00
55066;BME280;40964;42.114;24.220;2023-02-28T06:06:25;98559.91;;;8.04;100.00
55066;BME280;40964;42.114;24.220;2023-02-28T06:08:51;98574.34;;;8.15;100.00
55066;BME280;40964;42.114;24.220;2023-02-28T06:11:16;98579.59;;;8.15;100.00
55066;BME280;40964;42.114;24.220;2023-02-28T06:13:42;98578.50;;;8.24;100.00
55066;BME280;40964;42.114;24.220;2023-02-28T06:16:10;98575.44;;;8.35;100.00
55066;BME280;40964;42.114;24.220;2023-02-28T06:18:36;98582.41;;;8.28;100.00
55066;BME280;40964;42.114;24.220;2023-02-28T06:21:01;98583.56;;;8.25;100.00
55066;BME280;40964;42.114;24.220;2023-02-28T06:23:27;98589.97;;;8.23;100.00
55066;BME280;40964;42.114;24.220;2023-02-28T06:25:52;98592.31;;;8.33;100.00
55066;BME280;40964;42.114;24.220;2023-02-28T06:28:18;98597.06;;;8.37;100.00
55066;BME280;40964;42.114;24.220;2023-02-28T06:30:44;98599.94;;;8.28;100.00
55066;BME280;40964;42.114;24.220;2023-02-28T06:33:09;98591.34;;;8.19;100.00
55066;BME280;40964;42.114;24.220;2023-02-28T06:35:35;98600.56;;;8.30;100.00
55066;BME280;40964;42.114;24.220;2023-02-28T06:38:00;98604.06;;;8.22;100.00
55066;BME280;40964;42.114;24.220;2023-02-28T06:40:26;98597.66;;;8.24;100.00
55066;BME280;40964;42.114;24.220;2023-02-28T06:42:52;98600.56;;;8.30;100.00
55066;BME280;40964;42.114;24.220;2023-02-28T06:45:17;98594.13;;;8.32;100.00
55066;BME280;40964;42.114;24.220;2023-02-28T06:47:43;98590.44;;;8.41;100.00
55066;BME280;40964;42.114;24.220;2023-02-28T06:50:11;98607.88;;;8.64;100.00
55066;BME280;40964;42.114;24.220;2023-02-28T06:52:37;98594.75;;;8.64;100.00
55066;BME280;40964;42.114;24.220;2023-02-28T06:55:06;98598.63;;;8.68;100.00
55066;BME280;40964;42.114;24.220;2023-02-28T06:57:34;98599.91;;;8.72;100.00
55066;BME280;40964;42.114;24.220;2023-02-28T07:00:02;98605.16;;;8.72;100.00
55066;BME280;40964;42.114;24.220;2023-02-28T07:02:28;98593.38;;;8.68;100.00
55066;BME280;40964;42.114;24.220;2023-02-28T07:04:54;98610.75;;;8.69;100.00
55066;BME280;40964;42.114;24.220;2023-02-28T07:07:19;98601.25;;;8.53;100.00
55066;BME280;40964;42.114;24.220;2023-02-28T07:09:45;98605.06;;;8.50;100.00
55066;BME280;40964;42.114;24.220;2023-02-28T07:12:10;98614.00;;;8.26;100.00
55066;BME280;40964;42.114;24.220;2023-02-28T07:14:36;98611.22;;;8.28;100.00
55066;BME280;40964;42.114;24.220;2023-02-28T07:17:02;98617.38;;;8.35;100.00
55066;BME280;40964;42.114;24.220;2023-02-28T07:19:27;98622.53;;;8.29;100.00
55066;BME280;40964;42.114;24.220;2023-02-28T07:21:53;98620.16;;;8.19;100.00
55066;BME280;40964;42.114;24.220;2023-02-28T07:24:18;98620.97;;;8.34;100.00
55066;BME280;40964;42.114;24.220;2023-02-28T07:26:44;98622.00;;;8.48;100.00
55066;BME280;40964;42.114;24.220;2023-02-28T07:29:09;98628.56;;;8.59;100.00
55066;BME280;40964;42.114;24.220;2023-02-28T07:31:35;98616.78;;;8.69;100.00
55066;BME280;40964;42.114;24.220;2023-02-28T07:34:00;98616.59;;;8.71;100.00
55066;BME280;40964;42.114;24.220;2023-02-28T07:36:27;98618.59;;;8.69;100.00
55066;BME280;40964;42.114;24.220;2023-02-28T07:38:53;98623.22;;;8.81;100.00
55066;BME280;40964;42.114;24.220;2023-02-28T07:41:20;98626.47;;;8.69;100.00
55066;BME280;40964;42.114;24.220;2023-02-28T07:43:46;98631.38;;;8.72;100.00
55066;BME280;40964;42.114;24.220;2023-02-28T07:46:14;98631.47;;;8.49;100.00
55066;BME280;40964;42.114;24.220;2023-02-28T07:48:44;98627.03;;;8.64;100.00
55066;BME280;40964;42.114;24.220;2023-02-28T07:51:09;98637.53;;;8.64;100.00
55066;BME280;40964;42.114;24.220;2023-02-28T07:53:35;98647.91;;;8.72;100.00
55066;BME280;40964;42.114;24.220;2023-02-28T07:56:02;98646.94;;;8.59;100.00
55066;BME280;40964;42.114;24.220;2023-02-28T07:58:29;98638.63;;;8.55;100.00
55066;BME280;40964;42.114;24.220;2023-02-28T08:00:55;98644.94;;;8.61;100.00
55066;BME280;40964;42.114;24.220;2023-02-28T08:03:21;98646.50;;;8.55;100.00
55066;BME280;40964;42.114;24.220;2023-02-28T08:05:47;98643.16;;;8.46;100.00
55066;BME280;40964;42.114;24.220;2023-02-28T08:08:16;98654.97;;;8.42;100.00
55066;BME280;40964;42.114;24.220;2023-02-28T08:10:42;98660.31;;;8.49;100.00
55066;BME280;40964;42.114;24.220;2023-02-28T08:13:08;98658.94;;;8.53;100.00
55066;BME280;40964;42.114;24.220;2023-02-28T08:15:33;98656.16;;;8.55;100.00
55066;BME280;40964;42.114;24.220;2023-02-28T08:17:59;98654.31;;;8.70;100.00
55066;BME280;40964;42.114;24.220;2023-02-28T08:20:25;98653.50;;;8.69;100.00
55066;BME280;40964;42.114;24.220;2023-02-28T08:22:51;98648.81;;;8.65;100.00
55066;BME280;40964;42.114;24.220;2023-02-28T08:25:17;98637.75;;;8.84;100.00
55066;BME280;40964;42.114;24.220;2023-02-28T08:27:42;98649.88;;;8.85;100.00
55066;BME280;40964;42.114;24.220;2023-02-28T08:30:11;98655.56;;;8.89;100.00
55066;BME280;40964;42.114;24.220;2023-02-28T08:32:37;98643.00;;;8.84;100.00
55066;BME280;40964;42.114;24.220;2023-02-28T08:35:03;98623.13;;;8.75;100.00
55066;BME280;40964;42.114;24.220;2023-02-28T08:37:29;98649.44;;;9.18;100.00
55066;BME280;40964;42.114;24.220;2023-02-28T08:39:54;98635.94;;;9.21;100.00
55066;BME280;40964;42.114;24.220;2023-02-28T08:42:20;98643.88;;;9.27;99.92
55066;BME280;40964;42.114;24.220;2023-02-28T08:44:45;98639.38;;;9.21;99.47
55066;BME280;40964;42.114;24.220;2023-02-28T08:47:11;98627.44;;;9.19;99.49
55066;BME280;40964;42.114;24.220;2023-02-28T08:49:37;98629.75;;;9.28;99.11
55066;BME280;40964;42.114;24.220;2023-02-28T08:52:03;98624.72;;;9.33;99.29
55066;BME280;40964;42.114;24.220;2023-02-28T08:54:28;98629.72;;;9.50;98.33
55066;BME280;40964;42.114;24.220;2023-02-28T08:56:56;98614.31;;;9.40;97.02
55066;BME280;40964;42.114;24.220;2023-02-28T08:59:22;98629.81;;;9.35;97.00
55066;BME280;40964;42.114;24.220;2023-02-28T09:01:48;98638.25;;;9.30;97.41
55066;BME280;40964;42.114;24.220;2023-02-28T09:04:13;98641.66;;;9.52;96.68
55066;BME280;40964;42.114;24.220;2023-02-28T09:06:39;98641.84;;;9.51;96.38
55066;BME280;40964;42.114;24.220;2023-02-28T09:09:04;98640.72;;;9.60;97.19
55066;BME280;40964;42.114;24.220;2023-02-28T09:11:31;98650.53;;;9.73;95.95
55066;BME280;40964;42.114;24.220;2023-02-28T09:13:58;98639.88;;;9.53;96.39
55066;BME280;40964;42.114;24.220;2023-02-28T09:16:24;98639.44;;;9.71;95.71
55066;BME280;40964;42.114;24.220;2023-02-28T09:18:50;98636.16;;;9.68;95.75
55066;BME280;40964;42.114;24.220;2023-02-28T09:21:16;98621.25;;;9.76;94.68
55066;BME280;40964;42.114;24.220;2023-02-28T09:23:44;98629.94;;;9.76;95.09
55066;BME280;40964;42.114;24.220;2023-02-28T09:26:21;98621.16;;;9.62;94.46
55066;BME280;40964;42.114;24.220;2023-02-28T09:28:47;98625.03;;;9.66;95.21
55066;BME280;40964;42.114;24.220;2023-02-28T09:31:15;98623.03;;;9.68;95.02
55066;BME280;40964;42.114;24.220;2023-02-28T09:33:41;98616.25;;;9.81;94.88
55066;BME280;40964;42.114;24.220;2023-02-28T09:36:07;98613.06;;;9.85;94.65
55066;BME280;40964;42.114;24.220;2023-02-28T09:38:33;98608.19;;;9.82;95.49
55066;BME280;40964;42.114;24.220;2023-02-28T09:41:01;98615.72;;;9.92;95.51
55066;BME280;40964;42.114;24.220;2023-02-28T09:43:33;98604.94;;;10.15;94.18
55066;BME280;40964;42.114;24.220;2023-02-28T09:46:18;98621.88;;;10.34;92.70
55066;BME280;40964;42.114;24.220;2023-02-28T09:48:49;98618.88;;;10.37;91.50
55066;BME280;40964;42.114;24.220;2023-02-28T09:53:41;98622.50;;;10.36;90.89
55066;BME280;40964;42.114;24.220;2023-02-28T09:58:58;98619.56;;;10.52;90.11
55066;BME280;40964;42.114;24.220;2023-02-28T10:10:10;98611.53;;;9.98;93.45
55066;BME280;40964;42.114;24.220;2023-02-28T10:12:44;98609.28;;;9.94;93.09
55066;BME280;40964;42.114;24.220;2023-02-28T10:15:14;98612.09;;;9.93;93.51
55066;BME280;40964;42.114;24.220;2023-02-28T10:17:43;98604.97;;;9.87;94.85
55066;BME280;40964;42.114;24.220;2023-02-28T10:20:14;98607.56;;;9.80;94.87
55066;BME280;40964;42.114;24.220;2023-02-28T10:25:37;98605.31;;;9.77;94.37
55066;BME280;40964;42.114;24.220;2023-02-28T10:28:14;98607.31;;;9.75;94.99
55066;BME280;40964;42.114;24.220;2023-02-28T10:30:48;98601.88;;;9.77;95.03
55066;BME280;40964;42.114;24.220;2023-02-28T10:33:34;98596.94;;;9.67;94.93
55066;BME280;40964;42.114;24.220;2023-02-28T10:36:00;98602.69;;;9.77;94.48
55066;BME280;40964;42.114;24.220;2023-02-28T10:38:32;98608.94;;;9.76;94.45
55066;BME280;40964;42.114;24.220;2023-02-28T10:43:29;98593.03;;;9.56;95.50
55066;BME280;40964;42.114;24.220;2023-02-28T11:01:42;98561.44;;;9.22;97.47
55066;BME280;40964;42.114;24.220;2023-02-28T11:07:06;98558.75;;;9.36;98.31
55066;BME280;40964;42.114;24.220;2023-02-28T11:09:38;98560.72;;;9.34;98.89
55066;BME280;40964;42.114;24.220;2023-02-28T11:12:07;98554.81;;;9.26;98.72
55066;BME280;40964;42.114;24.220;2023-02-28T11:14:47;98541.16;;;9.09;99.88
55066;BME280;40964;42.114;24.220;2023-02-28T11:17:31;98548.75;;;9.25;99.83
55066;BME280;40964;42.114;24.220;2023-02-28T11:20:07;98551.06;;;9.35;98.93
55066;BME280;40964;42.114;24.220;2023-02-28T11:22:44;98563.13;;;9.29;98.77
55066;BME280;40964;42.114;24.220;2023-02-28T11:25:31;98559.88;;;9.27;99.79
55066;BME280;40964;42.114;24.220;2023-02-28T11:27:59;98561.06;;;9.25;99.19
55066;BME280;40964;42.114;24.220;2023-02-28T11:30:40;98552.56;;;9.23;99.13
55066;BME280;40964;42.114;24.220;2023-02-28T11:33:39;98549.97;;;9.01;100.00
55066;BME280;40964;42.114;24.220;2023-02-28T11:36:15;98550.28;;;8.92;100.00
55066;BME280;40964;42.114;24.220;2023-02-28T11:38:42;98555.03;;;8.81;100.00
55066;BME280;40964;42.114;24.220;2023-02-28T11:46:51;98548.25;;;8.72;100.00
55066;BME280;40964;42.114;24.220;2023-02-28T11:49:35;98540.81;;;8.76;100.00
55066;BME280;40964;42.114;24.220;2023-02-28T11:57:35;98530.53;;;8.74;100.00
55066;BME280;40964;42.114;24.220;2023-02-28T12:05:45;98516.56;;;8.52;100.00
55066;BME280;40964;42.114;24.220;2023-02-28T12:13:55;98512.22;;;8.60;100.00
55066;BME280;40964;42.114;24.220;2023-02-28T12:21:45;98507.22;;;8.29;100.00
55066;BME280;40964;42.114;24.220;2023-02-28T12:27:00;98518.78;;;8.19;100.00
55066;BME280;40964;42.114;24.220;2023-02-28T12:29:54;98523.22;;;8.19;100.00
55066;BME280;40964;42.114;24.220;2023-02-28T12:32:38;98530.81;;;8.14;100.00
55066;BME280;40964;42.114;24.220;2023-02-28T12:35:12;98527.03;;;8.02;100.00
55066;BME280;40964;42.114;24.220;2023-02-28T12:40:22;98524.13;;;8.11;100.00
55066;BME280;40964;42.114;24.220;2023-02-28T12:42:58;98522.13;;;8.13;100.00
55066;BME280;40964;42.114;24.220;2023-02-28T12:48:06;98515.31;;;8.34;100.00
55066;BME280;40964;42.114;24.220;2023-02-28T12:50:33;98514.38;;;8.20;100.00
55066;BME280;40964;42.114;24.220;2023-02-28T13:06:49;98502.19;;;7.97;100.00
55066;BME280;40964;42.114;24.220;2023-02-28T13:09:20;98506.16;;;7.93;100.00
55066;BME280;40964;42.114;24.220;2023-02-28T13:11:53;98498.13;;;7.95;100.00
55066;BME280;40964;42.114;24.220;2023-02-28T13:16:50;98501.56;;;7.95;100.00
55066;BME280;40964;42.114;24.220;2023-02-28T13:19:18;98497.41;;;7.86;100.00
55066;BME280;40964;42.114;24.220;2023-02-28T13:21:46;98499.03;;;7.87;100.00
55066;BME280;40964;42.114;24.220;2023-02-28T13:27:10;98506.44;;;7.84;100.00
55066;BME280;40964;42.114;24.220;2023-02-28T13:29:41;98517.13;;;7.82;100.00
55066;BME280;40964;42.114;24.220;2023-02-28T13:34:39;98515.28;;;7.68;100.00
55066;BME280;40964;42.114;24.220;2023-02-28T13:53:13;98527.53;;;7.38;100.00
55066;BME280;40964;42.114;24.220;2023-02-28T14:04:14;98512.72;;;7.30;100.00
55066;BME280;40964;42.114;24.220;2023-02-28T14:06:50;98514.88;;;7.27;100.00
55066;BME280;40964;42.114;24.220;2023-02-28T14:09:23;98520.22;;;7.33;100.00
55066;BME280;40964;42.114;24.220;2023-02-28T14:11:50;98514.28;;;7.39;100.00
55066;BME280;40964;42.114;24.220;2023-02-28T14:17:03;98513.97;;;7.34;100.00
55066;BME280;40964;42.114;24.220;2023-02-28T14:19:32;98507.75;;;7.35;100.00
55066;BME280;40964;42.114;24.220;2023-02-28T14:25:31;98505.13;;;7.21;100.00
55066;BME280;40964;42.114;24.220;2023-02-28T14:28:18;98516.22;;;7.23;100.00
55066;BME280;40964;42.114;24.220;2023-02-28T14:31:07;98510.19;;;7.22;100.00
55066;BME280;40964;42.114;24.220;2023-02-28T14:33:53;98517.09;;;7.15;100.00
55066;BME280;40964;42.114;24.220;2023-02-28T14:36:38;98521.06;;;7.11;100.00
55066;BME280;40964;42.114;24.220;2023-02-28T14:39:16;98515.53;;;7.06;100.00
55066;BME280;40964;42.114;24.220;2023-02-28T14:41:45;98515.34;;;6.93;100.00
55066;BME280;40964;42.114;24.220;2023-02-28T14:46:48;98520.72;;;6.91;100.00
55066;BME280;40964;42.114;24.220;2023-02-28T14:49:36;98520.88;;;6.90;100.00
55066;BME280;40964;42.114;24.220;2023-02-28T14:52:22;98516.66;;;6.89;100.00
55066;BME280;40964;42.114;24.220;2023-02-28T14:54:53;98525.31;;;6.89;100.00
55066;BME280;40964;42.114;24.220;2023-02-28T15:00:01;98520.50;;;6.78;100.00
55066;BME280;40964;42.114;24.220;2023-02-28T15:02:33;98521.75;;;6.82;100.00
55066;BME280;40964;42.114;24.220;2023-02-28T15:05:02;98529.50;;;6.98;100.00
55066;BME280;40964;42.114;24.220;2023-02-28T15:07:35;98500.91;;;6.74;100.00
55066;BME280;40964;42.114;24.220;2023-02-28T15:10:28;98536.16;;;7.01;100.00
55066;BME280;40964;42.114;24.220;2023-02-28T15:13:10;98533.47;;;6.94;100.00
55066;BME280;40964;42.114;24.220;2023-02-28T15:18:21;98540.31;;;6.95;100.00
55066;BME280;40964;42.114;24.220;2023-02-28T15:20:48;98535.50;;;6.84;100.00
55066;BME280;40964;42.114;24.220;2023-02-28T15:23:15;98555.06;;;6.88;100.00
55066;BME280;40964;42.114;24.220;2023-02-28T15:25:41;98537.31;;;6.83;100.00
55066;BME280;40964;42.114;24.220;2023-02-28T15:28:14;98547.41;;;6.87;100.00
55066;BME280;40964;42.114;24.220;2023-02-28T15:30:54;98546.41;;;6.88;100.00
55066;BME280;40964;42.114;24.220;2023-02-28T15:33:23;98550.59;;;6.97;100.00
55066;BME280;40964;42.114;24.220;2023-02-28T15:35:49;98556.41;;;7.07;100.00
55066;BME280;40964;42.114;24.220;2023-02-28T15:40:53;98548.44;;;7.23;100.00
55066;BME280;40964;42.114;24.220;2023-02-28T15:43:24;98538.06;;;7.30;100.00
55066;BME280;40964;42.114;24.220;2023-02-28T15:45:52;98546.56;;;7.32;100.00
55066;BME280;40964;42.114;24.220;2023-02-28T15:51:08;98539.50;;;7.32;100.00
55066;BME280;40964;42.114;24.220;2023-02-28T15:53:54;98554.34;;;7.40;100.00
55066;BME280;40964;42.114;24.220;2023-02-28T15:56:24;98547.81;;;7.36;100.00
55066;BME280;40964;42.114;24.220;2023-02-28T15:58:56;98554.84;;;7.35;100.00
55066;BME280;40964;42.114;24.220;2023-02-28T16:01:28;98559.34;;;7.27;100.00
55066;BME280;40964;42.114;24.220;2023-02-28T16:04:14;98553.28;;;7.26;100.00
55066;BME280;40964;42.114;24.220;2023-02-28T16:06:46;98553.03;;;7.36;100.00
55066;BME280;40964;42.114;24.220;2023-02-28T16:09:14;98551.09;;;7.38;100.00